createdAt,value
2019-02-24T00:01:07.345Z,103363.89
2019-02-24T00:02:13.524Z,103358.67
2019-02-24T00:03:20.748Z,103355.81
2019-02-24T00:04:26.939Z,103352.81
2019-02-24T00:05:34.113Z,103351.91
2019-02-24T00:06:41.074Z,103350.45
2019-02-24T00:07:46.943Z,103353.73
2019-02-24T00:08:54.121Z,103352.92
2019-02-24T00:10:01.003Z,103346.53
2019-02-24T00:11:07.324Z,103342.76
2019-02-24T00:12:13.664Z,103342.47
2019-02-24T00:13:20.415Z,103345.89
2019-02-24T00:14:26.569Z,103344.59
2019-02-24T00:15:33.155Z,103344.59
2019-02-24T00:16:40.953Z,103348.50
2019-02-24T00:17:48.261Z,103352.80
2019-02-24T00:18:54.154Z,103351.99
2019-02-24T00:20:00.799Z,103351.22
2019-02-24T00:21:08.783Z,103350.44
2019-02-24T00:22:16.833Z,103350.83
2019-02-24T00:23:23.514Z,103345.75
2019-02-24T00:24:30.244Z,103343.23
2019-02-24T00:25:36.796Z,103343.23
2019-02-24T00:26:43.545Z,103345.84
2019-02-24T00:27:51.579Z,103344.16
2019-02-24T00:28:57.542Z,103347.54
2019-02-24T00:30:04.452Z,103349.77
2019-02-24T00:31:11.142Z,103346.38
2019-02-24T00:32:17.015Z,103340.14
2019-02-24T00:33:23.897Z,103341.44
2019-02-24T00:34:30.885Z,103344.54
2019-02-24T00:35:38.800Z,103346.13
2019-02-24T00:36:46.371Z,103348.22
2019-02-24T00:37:52.770Z,103354.73
2019-02-24T00:38:59.436Z,103357.21
2019-02-24T00:40:07.715Z,103362.04
2019-02-24T00:41:15.145Z,103356.96
2019-02-24T00:42:21.713Z,103353.57
2019-02-24T00:43:28.543Z,103362.70
2019-02-24T00:44:35.649Z,103350.83
2019-02-24T00:45:41.949Z,103353.19
2019-02-24T00:46:48.428Z,103342.32
2019-02-24T00:47:54.860Z,103340.14
2019-02-24T00:49:02.331Z,103339.71
2019-02-24T00:50:10.934Z,103336.33
2019-02-24T00:51:18.360Z,103332.02
2019-02-24T00:52:25.217Z,103340.77
2019-02-24T00:53:31.971Z,103335.69
2019-02-24T00:54:38.636Z,103331.37
2019-02-24T00:55:46.446Z,103332.27
2019-02-24T00:56:53.009Z,103328.09
2019-02-24T00:57:59.468Z,103329.11
2019-02-24T00:59:07.899Z,103324.70
2019-02-24T01:00:15.850Z,103328.72
2019-02-24T01:01:21.753Z,103334.59
2019-02-24T01:02:29.790Z,103329.38
2019-02-24T01:03:37.216Z,103329.77
2019-02-24T01:04:43.269Z,103328.17
2019-02-24T01:05:49.717Z,103326.62
2019-02-24T01:06:56.736Z,103322.41
2019-02-24T01:08:02.566Z,103323.08
2019-02-24T01:09:09.406Z,103329.98
2019-02-24T01:10:17.085Z,103321.37
2019-02-24T01:11:23.205Z,103322.78
2019-02-24T01:12:30.773Z,103322.92
2019-02-24T01:13:39.576Z,103325.66
2019-02-24T01:14:46.342Z,103326.31
2019-02-24T01:15:52.340Z,103318.61
2019-02-24T01:16:59.475Z,103315.32
2019-02-24T01:18:06.484Z,103310.23
2019-02-24T01:19:13.094Z,103317.83
2019-02-24T01:20:19.634Z,103316.69
2019-02-24T01:21:25.784Z,103314.33
2019-02-24T01:22:32.836Z,103311.85
2019-02-24T01:23:39.939Z,103314.46
2019-02-24T01:24:45.880Z,103313.55
2019-02-24T01:25:52.959Z,103315.77
2019-02-24T01:26:59.832Z,103308.33
2019-02-24T01:28:06.022Z,103318.77
2019-02-24T01:29:12.806Z,103316.55
2019-02-24T01:30:19.560Z,103316.16
2019-02-24T01:31:25.664Z,103321.91
2019-02-24T01:32:32.845Z,103325.68
2019-02-24T01:33:39.285Z,103320.47
2019-02-24T01:34:45.454Z,103323.21
2019-02-24T01:35:52.137Z,103331.81
2019-02-24T01:37:02.961Z,103320.17
2019-02-24T01:38:09.380Z,103328.30
2019-02-24T01:39:15.662Z,103325.16
2019-02-24T01:40:22.558Z,103323.23
2019-02-24T01:41:29.500Z,103324.63
2019-02-24T01:42:35.971Z,103319.56
2019-02-24T01:43:42.987Z,103314.09
2019-02-24T01:44:49.961Z,103318.92
2019-02-24T01:45:56.919Z,103319.31
2019-02-24T01:47:04.175Z,103329.22
2019-02-24T01:48:12.015Z,103326.33
2019-02-24T01:49:18.886Z,103320.09
2019-02-24T01:50:37.756Z,103324.27
2019-02-24T01:51:46.004Z,103326.88
2019-02-24T01:52:53.057Z,103331.70
2019-02-24T01:53:58.970Z,103337.45
2019-02-24T01:55:05.643Z,103339.91
2019-02-24T01:56:12.852Z,103337.69
2019-02-24T01:57:19.577Z,103334.82
2019-02-24T01:58:34.596Z,103337.43
2019-02-24T01:59:34.768Z,103340.56
2019-02-24T02:00:41.296Z,103341.87
2019-02-24T02:01:48.529Z,103355.41
2019-02-24T02:02:55.464Z,103347.72
2019-02-24T02:04:01.279Z,103344.58
2019-02-24T02:05:09.211Z,103350.48
2019-02-24T02:06:16.970Z,103352.04
2019-02-24T02:07:23.015Z,103356.09
2019-02-24T02:08:29.599Z,103343.04
2019-02-24T02:09:36.430Z,103342.78
2019-02-24T02:10:44.170Z,103339.26
2019-02-24T02:11:51.862Z,103333.77
2019-02-24T02:12:58.646Z,103337.30
2019-02-24T02:14:04.904Z,103341.21
2019-02-24T02:15:11.929Z,103333.38
2019-02-24T02:16:19.217Z,103335.59
2019-02-24T02:17:25.330Z,103339.26
2019-02-24T02:18:32.237Z,103337.56
2019-02-24T02:19:38.626Z,103335.34
2019-02-24T02:20:44.405Z,103337.30
2019-02-24T02:21:51.676Z,103328.94
2019-02-24T02:22:59.060Z,103325.16
2019-02-24T02:24:04.819Z,103325.55
2019-02-24T02:25:11.136Z,103311.88
2019-02-24T02:26:18.276Z,103317.72
2019-02-24T02:27:24.145Z,103313.41
2019-02-24T02:28:30.865Z,103317.33
2019-02-24T02:29:37.683Z,103313.94
2019-02-24T02:30:43.726Z,103310.41
2019-02-24T02:31:49.938Z,103300.75
2019-02-24T02:32:56.544Z,103311.46
2019-02-24T02:34:02.304Z,103297.36
2019-02-24T02:35:10.503Z,103292.77
2019-02-24T02:36:17.526Z,103289.66
2019-02-24T02:37:23.425Z,103297.20
2019-02-24T02:38:30.087Z,103294.07
2019-02-24T02:39:37.002Z,103298.67
2019-02-24T02:40:43.414Z,103294.50
2019-02-24T02:41:49.885Z,103292.90
2019-02-24T02:42:56.990Z,103299.81
2019-02-24T02:44:02.661Z,103292.38
2019-02-24T02:45:09.982Z,103297.73
2019-02-24T02:46:16.588Z,103296.03
2019-02-24T02:47:22.735Z,103288.05
2019-02-24T02:48:28.817Z,103293.50
2019-02-24T02:49:35.647Z,103293.50
2019-02-24T02:50:41.622Z,103287.89
2019-02-24T02:51:48.153Z,103291.02
2019-02-24T02:52:55.118Z,103283.06
2019-02-24T02:54:00.788Z,103283.81
2019-02-24T02:55:09.631Z,103280.19
2019-02-24T02:56:16.212Z,103273.53
2019-02-24T02:57:22.290Z,103267.66
2019-02-24T02:58:28.704Z,103269.84
2019-02-24T02:59:35.673Z,103260.31
2019-02-24T03:00:42.710Z,103254.70
2019-02-24T03:01:51.061Z,103256.02
2019-02-24T03:02:58.220Z,103251.84
2019-02-24T03:04:04.664Z,103259.02
2019-02-24T03:05:12.121Z,103253.40
2019-02-24T03:06:26.360Z,103249.39
2019-02-24T03:07:43.409Z,103247.79
2019-02-24T03:08:53.601Z,103247.79
2019-02-24T03:09:59.662Z,103243.48
2019-02-24T03:11:05.991Z,103241.27
2019-02-24T03:12:13.935Z,103239.70
2019-02-24T03:13:19.623Z,103234.97
2019-02-24T03:14:26.246Z,103241.09
2019-02-24T03:15:32.928Z,103235.39
2019-02-24T03:16:39.058Z,103231.86
2019-02-24T03:17:44.969Z,103233.27
2019-02-24T03:18:51.857Z,103233.79
2019-02-24T03:19:58.156Z,103233.40
2019-02-24T03:21:04.680Z,103233.17
2019-02-24T03:22:11.433Z,103234.97
2019-02-24T03:23:17.260Z,103234.09
2019-02-24T03:24:23.612Z,103231.05
2019-02-24T03:25:29.860Z,103233.79
2019-02-24T03:26:35.998Z,103233.92
2019-02-24T03:27:42.487Z,103228.95
2019-02-24T03:28:49.691Z,103238.62
2019-02-24T03:29:55.986Z,103234.70
2019-02-24T03:31:02.467Z,103238.23
2019-02-24T03:32:10.024Z,103236.40
2019-02-24T03:33:15.939Z,103228.73
2019-02-24T03:34:22.729Z,103234.34
2019-02-24T03:35:28.989Z,103231.47
2019-02-24T03:36:34.737Z,103231.47
2019-02-24T03:37:42.142Z,103221.26
2019-02-24T03:38:48.265Z,103216.56
2019-02-24T03:39:54.057Z,103211.73
2019-02-24T03:41:00.749Z,103207.42
2019-02-24T03:42:08.668Z,103202.59
2019-02-24T03:43:14.919Z,103202.06
2019-02-24T03:44:21.966Z,103199.45
2019-02-24T03:45:28.473Z,103202.20
2019-02-24T03:46:34.776Z,103204.38
2019-02-24T03:47:42.370Z,103200.59
2019-02-24T03:48:49.129Z,103196.55
2019-02-24T03:49:54.861Z,103200.34
2019-02-24T03:51:01.576Z,103199.13
2019-02-24T03:52:08.412Z,103193.91
2019-02-24T03:53:14.293Z,103206.56
2019-02-24T03:54:21.396Z,103198.51
2019-02-24T03:55:28.596Z,103197.72
2019-02-24T03:56:35.662Z,103197.72
2019-02-24T03:57:41.719Z,103195.59
2019-02-24T03:58:49.139Z,103187.38
2019-02-24T03:59:55.278Z,103185.41
2019-02-24T04:01:01.898Z,103179.28
2019-02-24T04:02:08.159Z,103171.05
2019-02-24T04:03:14.158Z,103170.23
2019-02-24T04:04:20.307Z,103171.45
2019-02-24T04:05:27.670Z,103166.75
2019-02-24T04:06:33.599Z,103164.39
2019-02-24T04:07:40.793Z,103164.39
2019-02-24T04:08:47.577Z,103173.41
2019-02-24T04:09:55.436Z,103177.58
2019-02-24T04:11:02.214Z,103167.30
2019-02-24T04:12:10.445Z,103171.61
2019-02-24T04:13:16.377Z,103165.58
2019-02-24T04:14:24.008Z,103168.35
2019-02-24T04:15:30.565Z,103180.00
2019-02-24T04:16:36.890Z,103171.65
2019-02-24T04:17:44.949Z,103176.09
2019-02-24T04:18:51.852Z,103181.80
2019-02-24T04:19:58.705Z,103175.56
2019-02-24T04:21:25.188Z,103179.09
2019-02-24T04:22:33.462Z,103182.48
2019-02-24T04:24:58.792Z,103170.87
2019-02-24T04:26:23.632Z,103173.87
2019-02-24T04:27:31.029Z,103177.39
2019-02-24T04:28:38.301Z,103175.80
2019-02-24T04:29:44.489Z,103170.73
2019-02-24T04:30:52.210Z,103179.48
2019-02-24T04:31:59.258Z,103179.31
2019-02-24T04:33:06.052Z,103185.84
2019-02-24T04:34:13.647Z,103180.62
2019-02-24T04:35:21.275Z,103187.84
2019-02-24T04:36:27.163Z,103184.18
2019-02-24T04:37:34.218Z,103179.88
2019-02-24T04:38:41.739Z,103181.70
2019-02-24T04:39:49.801Z,103168.91
2019-02-24T04:40:57.112Z,103171.12
2019-02-24T04:42:04.375Z,103162.77
2019-02-24T04:43:11.302Z,103169.82
2019-02-24T04:44:17.671Z,103167.21
2019-02-24T04:45:23.886Z,103164.20
2019-02-24T04:46:30.635Z,103169.82
2019-02-24T04:47:37.424Z,103170.52
2019-02-24T04:48:43.874Z,103168.81
2019-02-24T04:49:50.829Z,103159.02
2019-02-24T04:50:58.169Z,103159.06
2019-02-24T04:52:04.704Z,103155.96
2019-02-24T04:53:12.103Z,103158.57
2019-02-24T04:54:18.921Z,103164.05
2019-02-24T04:55:26.766Z,103154.00
2019-02-24T04:56:33.596Z,103161.61
2019-02-24T04:57:41.228Z,103162.39
2019-02-24T04:58:47.234Z,103163.98
2019-02-24T04:59:53.814Z,103159.16
2019-02-24T05:01:00.920Z,103162.16
2019-02-24T05:02:07.655Z,103165.95
2019-02-24T05:03:14.316Z,103158.41
2019-02-24T05:04:21.255Z,103166.63
2019-02-24T05:05:27.124Z,103170.94
2019-02-24T05:06:33.504Z,103164.58
2019-02-24T05:07:40.030Z,103168.88
2019-02-24T05:08:46.532Z,103167.58
2019-02-24T05:09:54.589Z,103165.75
2019-02-24T05:11:01.649Z,103170.45
2019-02-24T05:12:07.529Z,103169.53
2019-02-24T05:13:14.661Z,103172.41
2019-02-24T05:14:21.040Z,103167.58
2019-02-24T05:15:27.071Z,103160.53
2019-02-24T05:16:34.717Z,103158.83
2019-02-24T05:17:41.325Z,103159.75
2019-02-24T05:18:48.550Z,103162.75
2019-02-24T05:19:54.965Z,103154.27
2019-02-24T05:21:01.444Z,103158.61
2019-02-24T05:22:08.111Z,103157.69
2019-02-24T05:23:15.719Z,103152.08
2019-02-24T05:24:22.867Z,103150.88
2019-02-24T05:25:28.812Z,103152.70
2019-02-24T05:26:35.001Z,103153.32
2019-02-24T05:27:42.159Z,103145.63
2019-02-24T05:28:48.496Z,103142.48
2019-02-24T05:29:55.439Z,103140.92
2019-02-24T05:31:02.004Z,103136.48
2019-02-24T05:32:08.256Z,103138.02
2019-02-24T05:33:14.953Z,103134.11
2019-02-24T05:34:21.287Z,103132.41
2019-02-24T05:35:28.777Z,103128.63
2019-02-24T05:36:35.275Z,103134.86
2019-02-24T05:37:42.444Z,103126.53
2019-02-24T05:38:48.540Z,103133.06
2019-02-24T05:39:55.424Z,103126.53
2019-02-24T05:41:02.909Z,103135.28
2019-02-24T05:42:08.968Z,103132.67
2019-02-24T05:43:15.759Z,103134.46
2019-02-24T05:44:23.055Z,103130.94
2019-02-24T05:45:28.816Z,103132.93
2019-02-24T05:46:35.661Z,103129.41
2019-02-24T05:47:43.246Z,103131.23
2019-02-24T05:48:49.410Z,103126.80
2019-02-24T05:49:55.653Z,103132.15
2019-02-24T05:51:02.753Z,103129.80
2019-02-24T05:52:09.005Z,103128.10
2019-02-24T05:53:15.822Z,103130.72
2019-02-24T05:54:22.505Z,103134.23
2019-02-24T05:55:29.348Z,103131.63
2019-02-24T05:56:35.510Z,103129.80
2019-02-24T05:57:43.093Z,103130.58
2019-02-24T05:58:48.971Z,103133.06
2019-02-24T05:59:55.771Z,103136.84
2019-02-24T06:01:02.494Z,103133.72
2019-02-24T06:02:09.026Z,103141.94
2019-02-24T06:03:15.108Z,103136.84
2019-02-24T06:04:21.656Z,103128.10
2019-02-24T06:05:28.988Z,103136.84
2019-02-24T06:06:35.974Z,103128.88
2019-02-24T06:07:41.866Z,103118.74
2019-02-24T06:08:48.702Z,103117.83
2019-02-24T06:09:55.195Z,103122.27
2019-02-24T06:11:02.153Z,103127.36
2019-02-24T06:12:08.946Z,103122.53
2019-02-24T06:13:14.784Z,103125.83
2019-02-24T06:14:23.511Z,103116.69
2019-02-24T06:15:30.572Z,103116.17
2019-02-24T06:16:36.535Z,103118.91
2019-02-24T06:17:50.154Z,103126.73
2019-02-24T06:18:58.086Z,103120.31
2019-02-24T06:20:04.746Z,103119.69
2019-02-24T06:21:11.273Z,103115.77
2019-02-24T06:22:18.522Z,103116.30
2019-02-24T06:23:24.610Z,103110.56
2019-02-24T06:24:30.506Z,103118.91
2019-02-24T06:25:37.044Z,103117.30
2019-02-24T06:26:42.988Z,103112.48
2019-02-24T06:27:51.176Z,103119.13
2019-02-24T06:28:58.789Z,103120.56
2019-02-24T06:30:05.842Z,103111.44
2019-02-24T06:31:12.350Z,103121.58
2019-02-24T06:32:19.101Z,103115.41
2019-02-24T06:33:25.012Z,103119.55
2019-02-24T06:34:31.693Z,103116.28
2019-02-24T06:35:39.037Z,103114.81
2019-02-24T06:36:45.524Z,103121.69
2019-02-24T06:37:51.844Z,103121.30
2019-02-24T06:39:00.494Z,103125.56
2019-02-24T06:40:09.582Z,103124.75
2019-02-24T06:41:20.684Z,103115.87
2019-02-24T06:42:27.114Z,103121.31
2019-02-24T06:43:49.473Z,103117.00
2019-02-24T06:44:56.212Z,103119.83
2019-02-24T06:46:03.621Z,103107.47
2019-02-24T06:47:09.829Z,103103.95
2019-02-24T06:48:17.616Z,103102.25
2019-02-24T06:49:24.511Z,103102.13
2019-02-24T06:50:35.338Z,103100.94
2019-02-24T06:51:41.101Z,103101.33
2019-02-24T06:52:47.935Z,103095.42
2019-02-24T06:53:54.150Z,103100.25
2019-02-24T06:55:01.378Z,103097.25
2019-02-24T06:56:08.626Z,103095.38
2019-02-24T06:57:14.727Z,103091.80
2019-02-24T06:58:21.445Z,103090.72
2019-02-24T06:59:28.265Z,103094.89
2019-02-24T07:00:34.368Z,103095.50
2019-02-24T07:01:41.610Z,103088.40
2019-02-24T07:02:49.061Z,103086.04
2019-02-24T07:03:56.175Z,103082.91
2019-02-24T07:05:03.605Z,103081.13
2019-02-24T07:06:09.805Z,103083.07
2019-02-24T07:07:16.888Z,103076.18
2019-02-24T07:08:23.202Z,103074.64
2019-02-24T07:09:28.971Z,103072.82
2019-02-24T07:10:35.464Z,103067.63
2019-02-24T07:11:41.244Z,103063.97
2019-02-24T07:12:47.128Z,103070.45
2019-02-24T07:13:53.685Z,103074.58
2019-02-24T07:14:59.797Z,103074.39
2019-02-24T07:16:05.778Z,103067.70
2019-02-24T07:17:12.336Z,103070.94
2019-02-24T07:18:18.774Z,103069.36
2019-02-24T07:19:24.639Z,103063.73
2019-02-24T07:20:31.525Z,103063.21
2019-02-24T07:21:40.186Z,103066.53
2019-02-24T07:22:46.576Z,103060.39
2019-02-24T07:23:52.906Z,103062.42
2019-02-24T07:24:59.773Z,103056.67
2019-02-24T07:26:05.413Z,103058.50
2019-02-24T07:27:11.937Z,103073.40
2019-02-24T07:28:18.622Z,103065.97
2019-02-24T07:29:24.453Z,103063.98
2019-02-24T07:30:31.811Z,103055.63
2019-02-24T07:31:39.052Z,103052.27
2019-02-24T07:32:45.031Z,103046.61
2019-02-24T07:33:51.788Z,103045.93
2019-02-24T07:34:59.346Z,103039.08
2019-02-24T07:36:06.908Z,103040.22
2019-02-24T07:37:13.666Z,103047.88
2019-02-24T07:38:21.016Z,103041.14
2019-02-24T07:39:26.814Z,103043.36
2019-02-24T07:40:33.374Z,103038.36
2019-02-24T07:41:40.095Z,103039.08
2019-02-24T07:42:47.301Z,103047.61
2019-02-24T07:43:53.341Z,103044.91
2019-02-24T07:45:11.823Z,103037.34
2019-02-24T07:46:18.414Z,103044.99
2019-02-24T07:47:24.723Z,103040.38
2019-02-24T07:48:31.978Z,103051.69
2019-02-24T07:49:37.845Z,103047.88
2019-02-24T07:50:44.640Z,103060.05
2019-02-24T07:51:51.431Z,103060.45
2019-02-24T07:52:57.344Z,103059.54
2019-02-24T07:54:03.659Z,103057.23
2019-02-24T07:55:10.428Z,103055.93
2019-02-24T07:56:16.390Z,103052.99
2019-02-24T07:57:22.580Z,103047.88
2019-02-24T07:58:32.060Z,103048.58
2019-02-24T07:59:39.195Z,103041.83
2019-02-24T08:00:45.177Z,103032.78
2019-02-24T08:01:51.857Z,103038.53
2019-02-24T08:02:57.818Z,103042.03
2019-02-24T08:04:04.600Z,103039.64
2019-02-24T08:05:11.288Z,103040.55
2019-02-24T08:06:17.511Z,103038.33
2019-02-24T08:07:23.664Z,103038.22
2019-02-24T08:08:30.670Z,103036.11
2019-02-24T08:09:36.472Z,103033.28
2019-02-24T08:10:43.998Z,103032.77
2019-02-24T08:11:50.635Z,103033.60
2019-02-24T08:12:56.604Z,103039.41
2019-02-24T08:14:03.215Z,103034.77
2019-02-24T08:15:11.215Z,103040.73
2019-02-24T08:16:17.469Z,103042.83
2019-02-24T08:17:25.067Z,103035.30
2019-02-24T08:18:31.902Z,103040.02
2019-02-24T08:19:38.041Z,103044.54
2019-02-24T08:20:45.034Z,103040.52
2019-02-24T08:21:51.495Z,103041.34
2019-02-24T08:22:57.502Z,103029.87
2019-02-24T08:24:04.329Z,103032.08
2019-02-24T08:25:11.498Z,103025.24
2019-02-24T08:26:17.501Z,103020.52
2019-02-24T08:27:24.068Z,103017.38
2019-02-24T08:28:31.704Z,103015.84
2019-02-24T08:29:38.082Z,103025.12
2019-02-24T08:30:45.122Z,103023.13
2019-02-24T08:31:51.631Z,103022.92
2019-02-24T08:32:58.305Z,103028.76
2019-02-24T08:34:04.385Z,103029.78
2019-02-24T08:35:12.037Z,103036.13
2019-02-24T08:36:18.177Z,103030.56
2019-02-24T08:37:24.527Z,103028.86
2019-02-24T08:38:31.504Z,103032.09
2019-02-24T08:39:37.617Z,103024.31
2019-02-24T08:40:44.157Z,103017.98
2019-02-24T08:41:51.554Z,103010.42
2019-02-24T08:42:57.345Z,103012.73
2019-02-24T08:44:04.177Z,103005.97
2019-02-24T08:45:12.425Z,103007.66
2019-02-24T08:46:18.431Z,103015.52
2019-02-24T08:47:25.662Z,103020.73
2019-02-24T08:48:32.605Z,103014.98
2019-02-24T08:49:38.750Z,103016.73
2019-02-24T08:50:45.295Z,103016.73
2019-02-24T08:51:52.893Z,103014.30
2019-02-24T08:52:59.384Z,103014.88
2019-02-24T08:54:06.827Z,103007.12
2019-02-24T08:55:14.326Z,103016.19
2019-02-24T08:56:21.726Z,103016.27
2019-02-24T08:57:27.940Z,103022.02
2019-02-24T08:58:35.238Z,103017.98
2019-02-24T08:59:41.112Z,103024.39
2019-02-24T09:00:50.972Z,103021.36
2019-02-24T09:01:55.922Z,103023.98
2019-02-24T09:03:02.295Z,103024.13
2019-02-24T09:04:09.075Z,103022.52
2019-02-24T09:05:16.749Z,103026.11
2019-02-24T09:06:23.605Z,103026.91
2019-02-24T09:07:33.773Z,103034.95
2019-02-24T09:08:40.902Z,103036.48
2019-02-24T09:09:47.010Z,103028.66
2019-02-24T09:10:56.818Z,103028.44
2019-02-24T09:12:03.186Z,103025.55
2019-02-24T09:13:09.592Z,103018.80
2019-02-24T09:14:16.708Z,103018.84
2019-02-24T09:15:26.138Z,103017.39
2019-02-24T09:16:34.790Z,103010.82
2019-02-24T09:17:41.882Z,103012.64
2019-02-24T09:18:49.097Z,103017.16
2019-02-24T09:19:55.139Z,103021.50
2019-02-24T09:21:02.703Z,103023.83
2019-02-24T09:22:10.231Z,103021.20
2019-02-24T09:23:16.682Z,103011.19
2019-02-24T09:24:25.008Z,103008.73
2019-02-24T09:25:32.921Z,102999.66
2019-02-24T09:26:41.681Z,102992.75
2019-02-24T09:27:49.633Z,102995.31
2019-02-24T09:28:56.352Z,102992.34
2019-02-24T09:30:03.316Z,103005.59
2019-02-24T09:31:09.673Z,103002.83
2019-02-24T09:32:15.859Z,103007.70
2019-02-24T09:33:23.551Z,103002.03
2019-02-24T09:34:30.974Z,103008.43
2019-02-24T09:35:37.678Z,103014.13
2019-02-24T09:36:46.739Z,103008.53
2019-02-24T09:37:54.657Z,103012.76
2019-02-24T09:39:01.574Z,103015.08
2019-02-24T09:40:14.581Z,103009.05
2019-02-24T09:41:21.301Z,103014.22
2019-02-24T09:42:27.294Z,103015.01
2019-02-24T09:43:36.320Z,103015.01
2019-02-24T09:44:45.460Z,103012.07
2019-02-24T09:45:51.493Z,103010.11
2019-02-24T09:46:59.734Z,103007.84
2019-02-24T09:48:06.033Z,103002.39
2019-02-24T09:49:14.375Z,103001.02
2019-02-24T09:50:20.996Z,103002.39
2019-02-24T09:51:28.693Z,102995.34
2019-02-24T09:52:35.560Z,102996.16
2019-02-24T09:53:42.708Z,102990.66
2019-02-24T09:54:48.786Z,102987.11
2019-02-24T09:55:56.605Z,102985.55
2019-02-24T09:57:03.666Z,102990.91
2019-02-24T09:58:11.011Z,102986.91
2019-02-24T09:59:21.947Z,102992.64
2019-02-24T10:00:29.516Z,102991.83
2019-02-24T10:01:36.355Z,102993.19
2019-02-24T10:02:46.067Z,102992.13
2019-02-24T10:03:52.886Z,102985.30
2019-02-24T10:05:00.473Z,102986.86
2019-02-24T10:06:06.973Z,102988.17
2019-02-24T10:07:14.435Z,102987.05
2019-02-24T10:08:22.896Z,102985.95
2019-02-24T10:09:29.553Z,102979.97
2019-02-24T10:10:35.974Z,102977.65
2019-02-24T10:11:42.813Z,102981.12
2019-02-24T10:12:49.273Z,102980.37
2019-02-24T10:13:55.983Z,102975.86
2019-02-24T10:15:02.873Z,102984.91
2019-02-24T10:16:09.654Z,102982.58
2019-02-24T10:17:16.716Z,102978.05
2019-02-24T10:18:23.467Z,102981.33
2019-02-24T10:19:31.188Z,102982.06
2019-02-24T10:20:38.664Z,102981.55
2019-02-24T10:21:45.629Z,102986.33
2019-02-24T10:22:51.581Z,102988.44
2019-02-24T10:23:58.141Z,102985.22
2019-02-24T10:25:06.009Z,102981.50
2019-02-24T10:26:13.487Z,102982.70
2019-02-24T10:27:21.341Z,102981.06
2019-02-24T10:28:28.781Z,102982.02
2019-02-24T10:29:35.855Z,102983.75
2019-02-24T10:30:43.049Z,102984.30
2019-02-24T10:31:49.841Z,102985.84
2019-02-24T10:32:56.441Z,102983.91
2019-02-24T10:34:03.581Z,102986.34
2019-02-24T10:35:10.181Z,102981.25
2019-02-24T10:36:17.564Z,102976.56
2019-02-24T10:37:24.917Z,102976.56
2019-02-24T10:38:32.021Z,102980.08
2019-02-24T10:39:40.080Z,102974.71
2019-02-24T10:40:47.251Z,102985.22
2019-02-24T10:41:53.763Z,102974.03
2019-02-24T10:43:00.719Z,102976.45
2019-02-24T10:44:08.044Z,102978.72
2019-02-24T10:45:19.531Z,102979.84
2019-02-24T10:46:26.471Z,102980.27
2019-02-24T10:47:54.131Z,102988.67
2019-02-24T10:49:03.356Z,102981.58
2019-02-24T10:50:13.599Z,102989.94
2019-02-24T10:51:20.840Z,102987.72
2019-02-24T10:52:28.301Z,102994.17
2019-02-24T10:53:36.243Z,102991.48
2019-02-24T10:54:42.532Z,102989.20
2019-02-24T10:55:49.952Z,102991.56
2019-02-24T10:56:57.347Z,102988.59
2019-02-24T10:58:03.888Z,102988.33
2019-02-24T10:59:12.167Z,102984.91
2019-02-24T11:00:21.757Z,102983.67
2019-02-24T11:01:29.895Z,102990.19
2019-02-24T11:02:37.225Z,102988.12
2019-02-24T11:03:43.781Z,102982.16
2019-02-24T11:04:50.720Z,102983.11
2019-02-24T11:05:59.179Z,102985.92
2019-02-24T11:07:05.465Z,102986.35
2019-02-24T11:08:11.585Z,102986.61
2019-02-24T11:09:19.114Z,102984.40
2019-02-24T11:10:25.327Z,102979.87
2019-02-24T11:11:32.265Z,102981.02
2019-02-24T11:12:39.491Z,102980.03
2019-02-24T11:13:45.613Z,102976.31
2019-02-24T11:14:53.945Z,102980.81
2019-02-24T11:15:59.833Z,102980.90
2019-02-24T11:17:07.092Z,102971.57
2019-02-24T11:18:14.174Z,102965.66
2019-02-24T11:19:20.212Z,102972.44
2019-02-24T11:20:27.646Z,102974.33
2019-02-24T11:21:35.633Z,102966.48
2019-02-24T11:22:43.526Z,102967.56
2019-02-24T11:23:51.376Z,102966.23
2019-02-24T11:24:58.605Z,102953.73
2019-02-24T11:26:05.525Z,102965.50
2019-02-24T11:27:12.302Z,102963.55
2019-02-24T11:28:19.305Z,102968.17
2019-02-24T11:29:25.665Z,102970.11
2019-02-24T11:30:33.018Z,102958.41
2019-02-24T11:31:40.794Z,102961.51
2019-02-24T11:32:47.166Z,102955.36
2019-02-24T11:33:53.992Z,102951.05
2019-02-24T11:35:00.446Z,102952.30
2019-02-24T11:36:06.766Z,102951.07
2019-02-24T11:37:14.185Z,102951.90
2019-02-24T11:38:22.047Z,102949.34
2019-02-24T11:39:29.565Z,102946.77
2019-02-24T11:40:36.493Z,102947.11
2019-02-24T11:41:43.652Z,102949.55
2019-02-24T11:42:49.904Z,102954.14
2019-02-24T11:43:57.077Z,102949.72
2019-02-24T11:45:05.557Z,102953.11
2019-02-24T11:46:12.233Z,102955.95
2019-02-24T11:47:19.992Z,102955.27
2019-02-24T11:48:26.742Z,102959.80
2019-02-24T11:49:32.620Z,102962.37
2019-02-24T11:50:39.534Z,102965.92
2019-02-24T11:51:46.169Z,102964.14
2019-02-24T11:52:52.461Z,102971.08
2019-02-24T11:53:59.669Z,102970.58
2019-02-24T11:55:08.419Z,102967.81
2019-02-24T11:56:16.604Z,102964.68
2019-02-24T11:57:23.332Z,102962.86
2019-02-24T11:58:32.437Z,102961.87
2019-02-24T11:59:38.566Z,102957.58
2019-02-24T12:00:45.364Z,102963.20
2019-02-24T12:01:52.977Z,102969.67
2019-02-24T12:03:00.055Z,102971.48
2019-02-24T12:04:07.063Z,102969.72
2019-02-24T12:05:14.503Z,102967.52
2019-02-24T12:06:20.890Z,102960.97
2019-02-24T12:07:29.051Z,102959.11
2019-02-24T12:08:36.500Z,102953.33
2019-02-24T12:09:44.180Z,102960.22
2019-02-24T12:10:52.808Z,102958.31
2019-02-24T12:11:59.725Z,102955.34
2019-02-24T12:13:06.718Z,102948.54
2019-02-24T12:14:15.351Z,102950.44
2019-02-24T12:15:23.011Z,102953.98
2019-02-24T12:16:30.859Z,102945.67
2019-02-24T12:17:38.401Z,102942.11
2019-02-24T12:18:45.297Z,102943.34
2019-02-24T12:19:52.353Z,102937.34
2019-02-24T12:20:59.432Z,102945.55
2019-02-24T12:22:06.473Z,102938.98
2019-02-24T12:23:14.980Z,102933.35
2019-02-24T12:24:22.348Z,102932.78
2019-02-24T12:25:28.901Z,102933.23
2019-02-24T12:26:37.760Z,102928.28
2019-02-24T12:27:44.113Z,102933.45
2019-02-24T12:28:50.754Z,102927.27
2019-02-24T12:29:58.905Z,102939.20
2019-02-24T12:31:06.104Z,102940.67
2019-02-24T12:32:12.992Z,102944.42
2019-02-24T12:33:19.604Z,102941.52
2019-02-24T12:34:27.304Z,102947.00
2019-02-24T12:35:36.830Z,102947.61
2019-02-24T12:36:44.050Z,102940.32
2019-02-24T12:37:52.022Z,102941.95
2019-02-24T12:39:01.331Z,102942.59
2019-02-24T12:40:20.309Z,102943.23
2019-02-24T12:41:29.163Z,102939.88
2019-02-24T12:42:37.991Z,102935.60
2019-02-24T12:43:45.756Z,102938.89
2019-02-24T12:44:54.192Z,102929.47
2019-02-24T12:46:01.464Z,102937.52
2019-02-24T12:47:11.004Z,102942.16
2019-02-24T12:48:18.871Z,102930.92